Time;durP1;ratioP1;P1;durP2;ratioP2;P2;SDS_P1;SDS_P2;PMS_P1;PMS_P2;Temp;Humidity;BMP_temperature;BMP_pressure;BME280_temperature;BME280_humidity;BME280_pressure;Samples;Min_cycle;Max_cycle;Signal;HPM_P1;HPM_P2
2021/04/13 00:02:53;;;;;;;13.83;8.25;;;;;;;11.47;99.05;99639.46;4518716;78;28558;-85
2021/04/13 00:09:03;;;;;;;15.13;8.75;;;;;;;11.76;94.05;99642.48;4511603;78;28574;-87
2021/04/13 00:15:17;;;;;;;9.55;5.50;;;;;;;10.92;98.72;99646.35;4492569;78;28546;-86
2021/04/13 00:21:33;;;;;;;11.57;7.08;;;;;;;12.06;84.27;99647.16;4499970;78;28557;-88
2021/04/13 00:27:36;;;;;;;12.58;6.47;;;;;;;11.71;84.73;99645.85;4512975;78;28584;-87
2021/04/13 00:33:38;;;;;;;7.97;4.83;;;;;;;11.45;88.42;99653.14;4490231;78;28546;-87
2021/04/13 00:39:40;;;;;;;8.10;5.45;;;;;;;11.52;80.91;99647.71;4474657;78;28572;-87
2021/04/13 00:45:48;;;;;;;8.63;4.58;;;;;;;11.68;80.87;99660.58;4478589;78;28585;-87
2021/04/13 00:51:55;;;;;;;9.90;5.53;;;;;;;11.37;80.70;99660.17;4440607;80;28535;-87
2021/04/13 00:58:07;;;;;;;6.83;4.45;;;;;;;11.94;77.28;99673.48;4439883;80;28532;-87
2021/04/13 01:04:20;;;;;;;5.70;3.80;;;;;;;11.48;76.94;99677.45;4440005;80;28544;-87
2021/04/13 01:10:34;;;;;;;7.75;4.67;;;;;;;10.93;80.71;99670.33;4406755;79;28565;-85
2021/04/13 01:16:45;;;;;;;6.30;4.25;;;;;;;10.83;80.79;99678.89;4366105;81;28544;-87
2021/04/13 01:22:57;;;;;;;6.58;4.72;;;;;;;11.25;77.10;99688.32;4440232;80;28534;-88
2021/04/13 01:28:55;;;;;;;5.80;3.47;;;;;;;11.35;76.65;99695.38;4427962;80;28659;-87
2021/04/13 01:35:07;;;;;;;4.62;3.52;;;;;;;11.32;72.96;99696.34;4409771;80;28599;-89
2021/04/13 01:47:14;;;;;;;5.10;3.50;;;;;;;11.09;74.88;99711.22;4411249;79;28566;-88
2021/04/13 01:53:21;;;;;;;6.37;3.90;;;;;;;10.48;81.44;99712.91;4413088;79;28578;-88
2021/04/13 01:59:44;;;;;;;8.10;5.62;;;;;;;11.04;74.85;99711.87;4342588;81;28654;-87
2021/04/13 02:05:53;;;;;;;8.28;5.87;;;;;;;11.26;73.81;99719.58;4414630;79;28559;-88
2021/04/13 02:12:04;;;;;;;9.08;5.65;;;;;;;10.85;78.07;99727.91;4373644;81;28580;-88
2021/04/13 02:18:24;;;;;;;10.38;6.78;;;;;;;11.16;73.81;99739.72;4484946;79;28587;-90
2021/04/13 02:24:35;;;;;;;8.15;5.08;;;;;;;11.25;72.46;99736.77;4508777;78;28598;-90
2021/04/13 02:30:46;;;;;;;10.00;6.37;;;;;;;11.10;72.49;99750.53;4481866;78;28570;-91
2021/04/13 02:37:04;;;;;;;10.28;6.22;;;;;;;11.36;70.36;99749.52;4491662;79;28572;-90
2021/04/13 02:43:11;;;;;;;9.28;5.97;;;;;;;10.92;72.37;99762.84;4483525;79;28544;-87
2021/04/13 02:49:18;;;;;;;9.65;6.05;;;;;;;11.16;69.77;99757.22;4488074;78;28548;-86
2021/04/13 02:55:28;;;;;;;9.48;5.72;;;;;;;10.52;74.34;99753.65;4489156;78;28617;-87
2021/04/13 03:01:34;;;;;;;8.73;5.47;;;;;;;10.69;72.20;99749.95;4489314;78;28529;-89
2021/04/13 03:07:39;;;;;;;10.93;6.83;;;;;;;10.78;71.33;99747.32;4485774;79;28564;-88
2021/04/13 03:13:43;;;;;;;9.35;6.50;;;;;;;10.89;68.92;99756.56;4482275;79;28568;-88
2021/04/13 03:19:49;;;;;;;10.82;6.50;;;;;;;10.91;69.84;99753.66;4498241;78;28610;-86
2021/04/13 03:25:58;;;;;;;10.25;5.92;;;;;;;10.81;70.57;99750.91;4486691;78;28548;-86
2021/04/13 03:32:02;;;;;;;7.45;4.47;;;;;;;10.70;71.43;99761.01;4485706;79;28540;-88
2021/04/13 03:38:08;;;;;;;9.78;5.97;;;;;;;10.57;71.64;99773.48;4479784;78;28562;-86
2021/04/13 03:44:15;;;;;;;6.53;4.58;;;;;;;10.93;71.09;99778.48;4499828;78;28570;-88
2021/04/13 03:50:27;;;;;;;7.62;5.35;;;;;;;10.65;71.48;99783.67;4416605;78;28577;-88
2021/04/13 03:56:34;;;;;;;8.45;4.90;;;;;;;10.84;69.34;99788.67;4377353;79;28581;-88
2021/04/13 04:02:37;;;;;;;8.00;4.33;;;;;;;10.65;70.75;99795.27;4418173;80;28589;-87
2021/04/13 04:08:49;;;;;;;6.87;4.67;;;;;;;11.36;66.03;99795.30;4396796;80;28660;-89
2021/04/13 04:15:07;;;;;;;8.58;5.15;;;;;;;11.12;67.74;99799.58;4411691;80;28934;-88
2021/04/13 04:21:36;;;;;;;7.22;4.65;;;;;;;10.51;71.66;99805.74;4397707;80;28665;-86
2021/04/13 04:27:39;;;;;;;7.37;4.62;;;;;;;11.02;69.51;99812.98;4410920;80;28605;-85
2021/04/13 04:33:41;;;;;;;8.23;5.03;;;;;;;10.58;71.89;99824.03;4411877;80;28625;-86
2021/04/13 04:39:43;;;;;;;6.58;4.58;;;;;;;10.56;72.51;99822.08;4413336;79;28553;-86
2021/04/13 04:45:51;;;;;;;8.75;5.85;;;;;;;10.49;74.52;99834.20;4325913;81;28584;-86
2021/04/13 04:51:54;;;;;;;7.53;5.12;;;;;;;10.98;70.19;99845.91;4497982;78;28566;-87
2021/04/13 04:57:57;;;;;;;8.00;4.70;;;;;;;10.56;73.31;99851.66;4522190;78;28581;-87
2021/04/13 05:03:59;;;;;;;8.73;4.67;;;;;;;10.66;72.07;99855.23;4494402;78;28540;-85
2021/04/13 05:10:02;;;;;;;9.33;5.42;;;;;;;10.81;69.48;99859.02;4507708;78;28566;-85
2021/04/13 05:16:05;;;;;;;8.60;4.80;;;;;;;11.23;67.03;99862.14;4504479;78;28568;-85
2021/04/13 05:22:07;;;;;;;6.75;4.67;;;;;;;10.78;70.19;99871.05;4514545;78;28591;-84
2021/04/13 05:28:13;;;;;;;7.55;4.72;;;;;;;11.48;66.59;99880.76;4514934;78;28659;-84
2021/04/13 05:34:15;;;;;;;8.20;5.20;;;;;;;11.43;65.84;99885.44;4498820;78;28576;-86
2021/04/13 05:40:23;;;;;;;7.72;4.67;;;;;;;11.66;64.67;99871.42;4517203;78;28559;-85
2021/04/13 05:46:25;;;;;;;9.50;5.50;;;;;;;10.95;66.26;99879.98;4505931;78;28554;-84
2021/04/13 05:52:28;;;;;;;7.20;4.30;;;;;;;10.97;67.81;99887.31;4495619;78;28542;-86
2021/04/13 05:58:46;;;;;;;8.03;4.55;;;;;;;10.97;68.93;99892.19;4488467;78;28583;-86
2021/04/13 06:04:52;;;;;;;9.20;5.40;;;;;;;10.99;69.43;99887.41;4511860;78;28595;-86
2021/04/13 06:10:56;;;;;;;8.93;5.03;;;;;;;11.13;68.20;99904.34;4493033;78;28555;-83
2021/04/13 06:16:59;;;;;;;8.08;4.70;;;;;;;11.07;69.98;99911.09;4486609;78;28586;-85
2021/04/13 06:23:02;;;;;;;6.55;4.30;;;;;;;11.29;67.71;99912.95;4524988;78;28619;-86
2021/04/13 06:29:05;;;;;;;7.03;4.00;;;;;;;11.18;68.26;99923.05;4516805;78;28566;-86
2021/04/13 06:35:09;;;;;;;5.22;3.12;;;;;;;11.05;69.11;99935.52;4412393;80;28638;-85
2021/04/13 06:41:22;;;;;;;6.28;3.87;;;;;;;11.22;65.98;99945.28;4494253;78;28540;-85
2021/04/13 07:07:55;;;;;;;3.95;2.47;;;;;;;11.89;79.26;99950.85;4399849;79;86207;-82
2021/04/13 07:14:18;;;;;;;2.90;1.80;;;;;;;11.78;75.57;99949.69;4351358;81;28607;-81
2021/04/13 07:20:34;;;;;;;3.98;1.40;;;;;;;11.22;76.66;99963.31;4353784;81;28603;-82
2021/04/13 07:26:57;;;;;;;2.80;1.92;;;;;;;11.73;75.19;99950.84;4592267;76;84809;-81
2021/04/13 07:33:03;;;;;;;3.37;2.02;;;;;;;11.39;76.76;99948.86;4500144;78;28609;-84
2021/04/13 07:39:07;;;;;;;3.25;2.27;;;;;;;10.62;84.28;99956.20;4498556;78;28597;-81
2021/04/13 07:45:30;;;;;;;3.35;1.85;;;;;;;9.37;90.81;99959.10;4371978;80;28565;-82
2021/04/13 07:52:01;;;;;;;3.17;1.70;;;;;;;9.47;87.71;99964.92;4329501;80;34014;-84
2021/04/13 07:58:20;;;;;;;3.17;1.82;;;;;;;9.47;87.71;99964.92;4364524;80;28655;-84
2021/04/13 08:04:29;;;;;;;3.20;1.75;;;;;;;8.93;89.77;99967.36;4343431;80;28629;-84
2021/04/13 08:10:38;;;;;;;3.98;2.10;;;;;;;10.55;77.76;99961.06;4367847;81;28611;-81
2021/04/13 08:16:41;;;;;;;3.02;1.85;;;;;;;8.53;100.00;99974.28;4361622;80;28613;-85
2021/04/13 08:22:55;;;;;;;4.40;1.90;;;;;;;9.73;82.80;99968.70;4363221;80;28638;-83
2021/04/13 08:29:37;;;;;;;3.77;2.05;;;;;;;10.29;82.02;99958.67;4323039;81;28642;-82
2021/04/13 08:36:02;;;;;;;4.30;2.30;;;;;;;9.61;91.16;99961.77;4386582;80;28620;-83
2021/04/13 08:42:25;;;;;;;3.95;2.80;;;;;;;10.39;81.37;99954.22;4392542;80;28676;-82
2021/04/13 08:48:42;;;;;;;4.75;2.77;;;;;;;9.83;82.24;99962.96;4393156;80;28617;-82
2021/04/13 08:54:48;;;;;;;3.40;2.25;;;;;;;9.61;82.35;99959.59;4390136;80;28622;-81
2021/04/13 09:00:55;;;;;;;4.80;2.65;;;;;;;11.51;70.13;99951.17;4384673;80;28570;-81
2021/04/13 09:07:05;;;;;;;3.87;2.42;;;;;;;10.10;81.06;99949.58;4316153;81;28587;-81
2021/04/13 09:13:24;;;;;;;4.45;2.45;;;;;;;11.10;76.11;99946.48;4346777;80;28722;-84
2021/04/13 09:19:34;;;;;;;4.08;2.33;;;;;;;11.69;69.09;99937.52;4278044;81;28747;-82
2021/04/13 09:25:54;;;;;;;3.00;2.30;;;;;;;11.70;67.69;99933.24;4377748;80;28604;-83
2021/04/13 09:31:58;;;;;;;4.87;2.52;;;;;;;11.13;68.50;99935.80;4349624;80;28597;-84
2021/04/13 09:38:33;;;;;;;3.87;2.30;;;;;;;11.66;68.73;99935.23;4385543;80;28632;-82
2021/04/13 09:44:52;;;;;;;3.37;2.20;;;;;;;12.15;63.57;99923.95;4362138;80;28666;-81
2021/04/13 09:51:24;;;;;;;5.75;3.33;;;;;;;12.27;63.81;99923.03;4336116;80;28648;-81
2021/04/13 09:57:41;;;;;;;3.33;2.30;;;;;;;11.88;64.79;99924.14;4352134;80;28563;-82
2021/04/13 10:04:06;;;;;;;3.92;2.58;;;;;;;11.58;65.30;99925.04;4361608;81;28616;-81
2021/04/13 10:10:29;;;;;;;4.78;3.10;;;;;;;10.91;68.65;99925.30;4351800;80;28583;-81
2021/04/13 10:16:59;;;;;;;4.10;2.52;;;;;;;10.84;70.88;99919.95;4358936;80;28604;-82
2021/04/13 10:23:21;;;;;;;4.45;2.75;;;;;;;11.49;65.37;99910.17;4359058;80;28627;-83
2021/04/13 10:29:57;;;;;;;4.12;2.60;;;;;;;12.18;63.48;99902.78;4357540;80;28674;-81
2021/04/13 10:36:33;;;;;;;4.80;2.67;;;;;;;11.00;66.96;99906.55;4368772;80;28575;-81
2021/04/13 10:43:03;;;;;;;4.80;2.90;;;;;;;10.44;73.23;99896.67;4347860;80;28652;-84
2021/04/13 10:49:36;;;;;;;3.30;2.40;;;;;;;10.78;72.82;99886.34;4346567;81;28609;-82
2021/04/13 10:56:19;;;;;;;4.12;2.45;;;;;;;10.88;69.53;99886.23;4324083;80;28602;-86
2021/04/13 11:02:42;;;;;;;3.62;2.30;;;;;;;10.62;69.79;99880.41;4343080;80;28602;-81
2021/04/13 11:09:35;;;;;;;2.83;1.75;;;;;;;10.28;74.24;99879.08;4331545;80;28662;-84
2021/04/13 11:16:19;;;;;;;3.02;2.00;;;;;;;12.26;60.19;99867.45;4306713;80;28607;-81
2021/04/13 11:22:44;;;;;;;5.57;1.97;;;;;;;11.91;60.06;99875.20;4345316;80;28679;-83
2021/04/13 11:29:22;;;;;;;3.40;1.90;;;;;;;11.73;62.68;99853.87;4383330;80;28576;-82
2021/04/13 11:35:42;;;;;;;3.52;1.35;;;;;;;11.42;63.91;99853.67;4395110;80;28648;-81
2021/04/13 11:42:02;;;;;;;2.90;1.40;;;;;;;11.62;59.61;99860.80;4381804;80;28591;-86
2021/04/13 11:48:37;;;;;;;3.27;1.80;;;;;;;11.54;61.69;99850.28;4304585;82;28573;-85
2021/04/13 11:54:48;;;;;;;2.20;1.50;;;;;;;10.81;63.62;99849.60;4295812;81;28631;-84
2021/04/13 12:00:56;;;;;;;4.05;1.60;;;;;;;11.40;60.59;99848.19;4351686;80;28654;-84
2021/04/13 12:07:04;;;;;;;2.00;1.40;;;;;;;11.75;61.73;99846.92;4312288;81;28666;-85
2021/04/13 12:20:30;;;;;;;3.62;1.62;;;;;;;11.54;62.49;99832.77;4368980;80;28621;-84
2021/04/13 12:26:40;;;;;;;3.52;1.60;;;;;;;11.21;65.61;99825.73;4386732;80;28567;-82
2021/04/13 12:32:44;;;;;;;3.35;1.77;;;;;;;10.32;71.60;99823.86;4394199;80;28718;-86
2021/04/13 12:38:58;;;;;;;3.15;1.50;;;;;;;11.31;65.56;99808.59;4619821;76;59909;-84
2021/04/13 13:07:33;;;;;;;2.15;1.30;;;;;;;10.90;72.23;99782.95;4473301;78;28566;-85
2021/04/13 13:14:17;;;;;;;4.30;1.98;;;;;;;11.55;65.31;99783.25;4616879;76;85676;-84
2021/04/13 13:20:32;;;;;;;3.08;1.50;;;;;;;11.73;63.28;99778.44;4516594;77;28577;-84
2021/04/13 13:27:33;;;;;;;3.35;1.80;;;;;;;11.44;67.62;99772.66;4671447;76;75636;-85
2021/04/13 13:33:36;;;;;;;4.10;2.75;;;;;;;10.96;64.49;99792.33;4655631;75;28593;-84
2021/04/13 13:39:40;;;;;;;3.87;2.45;;;;;;;10.22;84.45;99784.50;4649215;75;28578;-87
2021/04/13 13:45:47;;;;;;;4.47;2.52;;;;;;;10.14;90.41;99767.25;4714423;75;28611;-84
2021/04/13 13:52:03;;;;;;;4.15;2.15;;;;;;;10.79;83.34;99777.72;4686138;75;28560;-83
2021/04/13 13:58:20;;;;;;;;;;;;;;;10.51;77.49;99767.59;4622111;76;28563;-90
2021/04/13 14:04:36;;;;;;;4.33;1.95;;;;;;;12.01;65.94;99754.25;4588202;76;20393;-86
2021/04/13 14:10:42;;;;;;;3.53;1.77;;;;;;;10.16;82.31;99755.80;4683320;75;28596;-86
2021/04/13 14:16:52;;;;;;;4.28;2.27;;;;;;;11.42;75.81;99741.09;4613270;77;28591;-85
2021/04/13 14:23:09;;;;;;;3.75;1.77;;;;;;;11.02;79.41;99743.02;4592556;76;28614;-86
2021/04/13 14:29:23;;;;;;;4.37;2.40;;;;;;;10.06;84.83;99735.26;4660123;75;28599;-85
2021/04/13 14:35:27;;;;;;;4.25;2.35;;;;;;;10.65;81.72;99728.54;4623786;77;28679;-85
2021/04/13 14:41:38;;;;;;;6.37;2.50;;;;;;;10.10;86.28;99743.19;4593451;77;28551;-85
2021/04/13 14:47:58;;;;;;;3.77;2.40;;;;;;;10.95;80.39;99722.58;4325458;80;87074;-86
2021/04/13 14:54:03;;;;;;;4.80;2.80;;;;;;;10.31;83.12;99731.36;4225412;83;28581;-87
2021/04/13 15:00:12;;;;;;;5.05;2.77;;;;;;;11.25;74.09;99714.73;4194925;83;28603;-87
2021/04/13 15:06:15;;;;;;;5.90;2.60;;;;;;;11.01;78.80;99719.03;4211708;83;28652;-86
2021/04/13 15:12:18;;;;;;;6.00;3.17;;;;;;;11.83;71.02;99720.03;4223604;83;28622;-88
2021/04/13 15:18:22;;;;;;;5.37;3.17;;;;;;;11.46;74.01;99722.63;4231130;83;28589;-85
2021/04/13 15:24:25;;;;;;;7.10;3.15;;;;;;;11.28;76.93;99711.59;4165559;84;28661;-83
2021/04/13 15:30:33;;;;;;;6.35;3.40;;;;;;;9.96;88.24;99720.40;4065212;86;28695;-84
2021/04/13 15:36:42;;;;;;;6.03;3.12;;;;;;;10.63;88.55;99704.57;4105704;85;28624;-85
2021/04/13 15:42:52;;;;;;;7.53;3.62;;;;;;;10.17;86.72;99701.02;4094794;85;28640;-90
2021/04/13 15:49:03;;;;;;;5.28;3.40;;;;;;;11.13;81.40;99700.30;4109473;85;28628;-84
2021/04/13 15:55:07;;;;;;;5.50;3.22;;;;;;;10.02;89.67;99702.08;4091462;85;28585;-84
2021/04/13 16:01:11;;;;;;;6.23;3.17;;;;;;;10.81;83.52;99698.46;4113340;85;28592;-82
2021/04/13 16:07:13;;;;;;;6.83;4.62;;;;;;;11.73;73.58;99688.73;4111438;85;28573;-84
2021/04/13 16:13:16;;;;;;;7.30;4.33;;;;;;;10.03;90.59;99693.52;4103520;85;28653;-83
2021/04/13 16:19:18;;;;;;;9.10;5.00;;;;;;;9.85;93.57;99696.87;4111809;85;28684;-85
2021/04/13 16:25:20;;;;;;;7.45;4.58;;;;;;;9.84;99.09;99694.69;4128748;85;28612;-84
2021/04/13 16:31:59;;;;;;;8.73;5.20;;;;;;;9.65;100.00;99696.39;4093959;86;28611;-83
2021/04/13 16:38:04;;;;;;;8.93;5.75;;;;;;;9.23;100.00;99695.80;4061887;86;28643;-82
2021/04/13 16:44:07;;;;;;;6.30;4.45;;;;;;;10.63;92.95;99688.95;4120494;85;28669;-82
2021/04/13 16:50:15;;;;;;;9.53;4.95;;;;;;;10.76;86.85;99682.14;4129196;85;28619;-82
2021/04/13 16:56:18;;;;;;;9.35;4.90;;;;;;;10.68;93.82;99683.22;4111575;85;28617;-83
2021/04/13 17:02:51;;;;;;;7.85;5.22;;;;;;;10.90;90.44;99689.60;4077669;85;28621;-82
2021/04/13 17:09:19;;;;;;;9.98;5.80;;;;;;;11.38;90.08;99685.51;4053309;86;28576;-82
2021/04/13 17:15:32;;;;;;;9.98;5.87;;;;;;;11.32;84.30;99681.53;4114628;85;28707;-82
2021/04/13 17:21:42;;;;;;;10.10;6.12;;;;;;;9.63;100.00;99683.16;4123218;85;28703;-82
2021/04/13 17:27:46;;;;;;;11.75;6.97;;;;;;;9.40;100.00;99689.49;4117905;85;28609;-82
2021/04/13 17:33:49;;;;;;;9.38;6.05;;;;;;;10.01;96.19;99695.05;4134375;85;28679;-80
2021/04/13 17:39:54;;;;;;;9.85;6.45;;;;;;;10.98;85.49;99697.92;4105346;85;28548;-80
2021/04/13 17:45:59;;;;;;;9.73;6.25;;;;;;;11.07;89.37;99706.04;4021700;86;28582;-82
2021/04/13 17:52:01;;;;;;;10.35;6.80;;;;;;;11.61;78.27;99709.67;4081122;86;28612;-83
2021/04/13 17:58:04;;;;;;;10.38;6.20;;;;;;;10.92;88.64;99709.58;4073400;86;28620;-82
2021/04/13 18:04:32;;;;;;;10.20;6.05;;;;;;;10.74;88.46;99716.50;4049204;86;28678;-83
2021/04/13 18:10:40;;;;;;;11.35;7.20;;;;;;;11.41;84.06;99718.75;4019142;87;29107;-81
2021/04/13 18:16:47;;;;;;;12.07;7.45;;;;;;;11.60;80.21;99722.81;4040520;87;28647;-80
2021/04/13 18:22:53;;;;;;;13.62;7.25;;;;;;;11.10;83.88;99730.35;4043154;87;28581;-82
2021/04/13 18:29:00;;;;;;;13.53;7.72;;;;;;;10.29;93.14;99729.38;4020914;87;28600;-79
2021/04/13 18:35:17;;;;;;;13.68;6.83;;;;;;;10.52;85.44;99740.20;4043022;87;28579;-82
2021/04/13 18:41:33;;;;;;;13.60;6.90;;;;;;;10.36;92.72;99738.25;4033009;87;28616;-83
2021/04/13 18:47:58;;;;;;;12.68;7.67;;;;;;;10.96;79.16;99740.38;4088514;85;28684;-81
2021/04/13 18:54:18;;;;;;;11.15;7.22;;;;;;;11.42;77.77;99735.20;4076310;85;28678;-82
2021/04/13 19:00:24;;;;;;;13.32;7.17;;;;;;;11.02;78.08;99736.29;4089990;85;28643;-82
2021/04/13 19:06:39;;;;;;;10.38;6.92;;;;;;;10.59;80.66;99734.25;4092569;85;28649;-82
2021/04/13 19:12:47;;;;;;;10.60;7.30;;;;;;;10.94;79.19;99735.73;4106767;85;28546;-82
2021/04/13 19:18:58;;;;;;;11.48;7.75;;;;;;;11.19;75.68;99730.40;4100093;86;28680;-82
2021/04/13 19:25:08;;;;;;;12.60;8.35;;;;;;;10.94;78.61;99729.84;4103956;85;28663;-80
2021/04/13 19:31:42;;;;;;;13.45;8.25;;;;;;;10.91;76.41;99718.69;4054099;86;28665;-79
2021/04/13 19:38:05;;;;;;;10.98;7.78;;;;;;;10.97;75.60;99725.38;4052876;86;28735;-81
2021/04/13 19:44:10;;;;;;;11.70;7.42;;;;;;;11.27;74.03;99718.53;4131004;85;28630;-80
2021/04/13 19:50:23;;;;;;;11.30;7.27;;;;;;;11.07;72.82;99714.65;4061757;86;28632;-78
2021/04/13 19:56:29;;;;;;;10.58;7.00;;;;;;;11.07;72.82;99714.65;4131551;85;28633;-78
2021/04/13 20:02:38;;;;;;;12.23;8.03;;;;;;;10.87;77.42;99715.06;4059197;86;28556;-80
2021/04/13 20:08:45;;;;;;;11.95;8.38;;;;;;;10.71;76.52;99709.67;4084231;85;28631;-82
2021/04/13 20:15:08;;;;;;;12.23;8.48;;;;;;;11.14;71.95;99704.14;4101361;85;28639;-79
2021/04/13 20:21:15;;;;;;;13.18;7.83;;;;;;;10.09;84.85;99706.08;4093528;85;28719;-83
2021/04/13 20:27:31;;;;;;;10.93;7.95;;;;;;;11.10;71.46;99697.55;4058035;86;28606;-87
2021/04/13 20:34:11;;;;;;;11.60;7.80;;;;;;;10.91;74.76;99703.89;4041180;86;28677;-86
2021/04/13 20:40:25;;;;;;;10.78;7.28;;;;;;;11.03;69.29;99694.08;4032826;86;28728;-88
2021/04/13 20:46:33;;;;;;;13.60;8.28;;;;;;;10.59;73.35;99688.04;4051538;85;28679;-88
2021/04/13 20:52:59;;;;;;;21.75;12.18;;;;;;;10.95;70.20;99691.64;4028296;86;28639;-87
2021/04/13 20:59:12;;;;;;;23.98;14.23;;;;;;;10.75;72.11;99679.14;4076744;85;28649;-86
2021/04/13 21:05:23;;;;;;;30.25;17.37;;;;;;;10.24;76.11;99674.92;4121582;85;28610;-85
2021/04/13 21:11:31;;;;;;;33.50;19.20;;;;;;;10.53;74.25;99665.23;4108800;85;28672;-85
2021/04/13 21:17:35;;;;;;;36.38;20.82;;;;;;;10.25;76.49;99660.44;4113881;85;28613;-86
2021/04/13 21:23:43;;;;;;;42.58;22.35;;;;;;;10.39;75.01;99663.89;4113213;85;28596;-87
2021/04/13 21:29:45;;;;;;;41.23;22.30;;;;;;;10.14;79.39;99661.11;4107700;85;28640;-86
2021/04/13 21:36:15;;;;;;;42.40;23.00;;;;;;;10.54;74.83;99656.92;4102821;85;28559;-86
2021/04/13 21:42:29;;;;;;;39.63;21.02;;;;;;;10.58;72.97;99654.63;4112134;85;28625;-86
2021/04/13 21:48:38;;;;;;;37.95;20.52;;;;;;;10.62;73.00;99649.66;4083351;85;28675;-85
2021/04/13 21:54:58;;;;;;;39.60;21.42;;;;;;;10.74;71.51;99647.91;4065108;86;28611;-85
2021/04/13 22:01:15;;;;;;;40.23;21.65;;;;;;;10.45;74.52;99642.92;4074959;86;28608;-85
2021/04/13 22:07:25;;;;;;;37.80;19.77;;;;;;;10.56;71.98;99649.46;4065897;86;28635;-86
2021/04/13 22:13:32;;;;;;;34.35;19.23;;;;;;;10.73;71.32;99642.23;4045674;86;28605;-85
2021/04/13 22:19:39;;;;;;;34.20;17.92;;;;;;;10.46;74.47;99640.53;4052394;86;28641;-85
2021/04/13 22:25:41;;;;;;;36.08;20.25;;;;;;;10.48;73.65;99634.95;4037639;86;28641;-86
2021/04/13 22:32:06;;;;;;;32.30;17.95;;;;;;;10.44;76.33;99629.69;4068231;86;28631;-85
2021/04/13 22:38:34;;;;;;;35.43;19.55;;;;;;;10.76;70.66;99624.30;4041788;86;28568;-85
2021/04/13 22:44:36;;;;;;;30.27;16.67;;;;;;;10.73;72.47;99623.41;4042587;85;28674;-86
2021/04/13 22:50:38;;;;;;;33.63;18.37;;;;;;;11.11;69.23;99626.54;4059834;86;28630;-86
2021/04/13 22:57:13;;;;;;;31.23;17.50;;;;;;;10.71;71.51;99618.77;4052670;86;28588;-86
2021/04/13 23:03:19;;;;;;;32.48;17.27;;;;;;;10.28;79.01;99624.27;4040041;86;28670;-84
2021/04/13 23:09:21;;;;;;;27.42;16.17;;;;;;;10.42;74.86;99623.20;4050456;86;28694;-84
2021/04/13 23:15:23;;;;;;;28.92;15.90;;;;;;;10.45;75.36;99619.23;4051539;86;28608;-84
2021/04/13 23:21:25;;;;;;;28.67;16.40;;;;;;;10.36;76.95;99615.11;4019325;86;28614;-84
2021/04/13 23:27:27;;;;;;;30.37;16.48;;;;;;;10.78;70.03;99608.80;4051022;86;28641;-86
2021/04/13 23:33:29;;;;;;;30.45;16.55;;;;;;;10.44;74.27;99609.52;4047988;86;28641;-85
2021/04/13 23:39:31;;;;;;;24.90;14.07;;;;;;;10.73;70.22;99597.35;4049051;86;28611;-84
2021/04/13 23:45:33;;;;;;;29.27;15.70;;;;;;;10.98;68.59;99599.72;3994582;87;28645;-84
2021/04/13 23:51:36;;;;;;;30.08;16.85;;;;;;;10.93;68.40;99590.96;4125081;85;28683;-84
2021/04/13 23:57:39;;;;;;;28.95;16.32;;;;;;;10.26;77.63;99592.75;4104644;85;28675;-85
